createdAt,value
2022-12-05T00:00:20.580Z,60.1474
2022-12-05T00:05:22.306Z,60.71921
2022-12-05T00:10:23.890Z,62.47477
2022-12-05T00:15:25.540Z,60.17884
2022-12-05T00:20:27.223Z,59.6056
2022-12-05T00:25:28.868Z,58.76423
2022-12-05T00:30:30.490Z,60.09598
2022-12-05T00:35:32.148Z,59.43214
2022-12-05T00:40:33.775Z,60.71697
2022-12-05T00:45:35.561Z,62.54067
2022-12-05T00:50:37.267Z,63.14006
2022-12-05T00:55:39.142Z,61.09619
2022-12-05T01:00:40.868Z,61.67264
2022-12-05T01:05:42.573Z,60.48805
2022-12-05T01:10:44.330Z,60.96278
2022-12-05T01:15:45.938Z,61.98672
2022-12-05T01:20:47.740Z,60.6769
2022-12-05T01:25:49.547Z,60.98527
2022-12-05T01:30:51.155Z,60.71969
2022-12-05T01:35:52.820Z,62.52025
2022-12-05T01:40:54.626Z,61.66895
2022-12-05T01:45:56.296Z,61.89561
2022-12-05T01:50:58.004Z,59.70399
2022-12-05T01:55:59.644Z,60.76915
2022-12-05T02:01:01.351Z,60.95815
2022-12-05T02:06:03.159Z,60.03258
2022-12-05T02:11:04.822Z,59.9058
2022-12-05T02:16:06.467Z,60.20608
2022-12-05T02:21:08.235Z,59.26874
2022-12-05T02:26:09.877Z,59.41764
2022-12-05T02:31:11.596Z,59.97531
2022-12-05T02:36:13.394Z,59.83379
2022-12-05T02:41:15.014Z,61.14946
2022-12-05T02:46:16.794Z,59.35569
2022-12-05T02:51:18.539Z,58.48862
2022-12-05T02:56:20.171Z,59.58891
2022-12-05T03:01:21.839Z,58.59279
2022-12-05T03:06:23.522Z,59.09402
2022-12-05T03:11:25.137Z,58.59426
2022-12-05T03:16:26.831Z,58.33988
2022-12-05T03:21:28.588Z,58.76979
2022-12-05T03:26:30.237Z,58.46293
2022-12-05T03:31:31.947Z,56.72243
2022-12-05T03:36:33.652Z,58.39265
2022-12-05T03:41:35.256Z,57.69056
2022-12-05T03:46:38.374Z,58.81831
2022-12-05T03:51:40.209Z,60.45537
2022-12-05T03:56:41.875Z,60.0085
2022-12-05T04:01:43.569Z,59.2467
2022-12-05T04:06:45.382Z,58.82754
2022-12-05T04:11:46.969Z,60.74879
2022-12-05T04:16:48.601Z,60.22752
2022-12-05T04:21:50.385Z,57.27783
2022-12-05T04:26:51.982Z,59.46647
2022-12-05T04:31:53.586Z,60.48686
2022-12-05T04:36:55.324Z,61.08746
2022-12-05T04:41:56.926Z,60.17995
2022-12-05T04:46:58.726Z,60.11396
2022-12-05T04:52:00.545Z,58.54083
2022-12-05T04:57:02.274Z,58.11491
2022-12-05T05:02:04.065Z,61.12588
2022-12-05T05:07:05.866Z,62.34316
2022-12-05T05:12:08.033Z,62.36314
2022-12-05T05:17:09.750Z,60.67737
2022-12-05T05:22:11.500Z,61.26339
2022-12-05T05:27:13.168Z,59.69878
2022-12-05T05:32:14.861Z,60.43463
2022-12-05T05:37:16.637Z,60.37293
2022-12-05T05:42:18.295Z,58.85301
2022-12-05T05:47:19.985Z,60.16222
2022-12-05T05:52:21.832Z,58.53323
2022-12-05T05:57:23.482Z,57.35111
2022-12-05T06:02:25.255Z,58.13166
2022-12-05T06:07:27.071Z,55.37123
2022-12-05T06:12:28.776Z,55.94736
2022-12-05T06:17:30.462Z,57.00415
2022-12-05T06:22:32.167Z,56.80443
2022-12-05T06:27:33.818Z,57.32412
2022-12-05T06:32:35.453Z,57.65454
2022-12-05T06:37:37.199Z,58.94719
2022-12-05T06:42:38.791Z,57.91618
2022-12-05T06:47:40.407Z,56.23148
2022-12-05T06:52:42.099Z,55.19401
2022-12-05T06:57:43.729Z,56.51534
2022-12-05T07:02:45.448Z,56.3313
2022-12-05T07:07:47.347Z,55.98991
2022-12-05T07:12:48.982Z,57.02104
2022-12-05T07:17:50.572Z,55.6163
2022-12-05T07:22:52.297Z,59.23072
2022-12-05T07:27:53.951Z,56.85329
2022-12-05T07:32:55.587Z,56.44367
2022-12-05T07:37:57.292Z,55.75324
2022-12-05T07:42:58.941Z,56.24824
2022-12-05T07:48:00.750Z,55.67075
2022-12-05T07:53:02.480Z,56.48015
2022-12-05T07:58:04.091Z,56.46325
2022-12-05T08:03:05.727Z,56.61649
2022-12-05T08:08:07.521Z,58.83976
2022-12-05T08:13:09.213Z,54.52217
2022-12-05T08:18:10.862Z,57.44444
2022-12-05T08:23:12.515Z,56.72431
2022-12-05T08:28:14.105Z,56.1839
2022-12-05T08:33:15.766Z,55.62197
2022-12-05T08:38:17.498Z,62.16513
2022-12-05T08:43:19.103Z,62.90319
2022-12-05T08:48:24.659Z,59.05709
2022-12-05T08:53:29.311Z,57.40015
2022-12-05T08:58:30.943Z,57.16527
2022-12-05T09:03:32.561Z,61.26593
2022-12-05T09:08:34.291Z,58.16726
2022-12-05T09:13:35.958Z,56.38825
2022-12-05T09:18:37.594Z,57.66468
2022-12-05T09:23:39.281Z,57.83387
2022-12-05T09:28:40.929Z,57.65214
2022-12-05T09:33:42.547Z,59.95706
2022-12-05T09:38:44.320Z,57.39008
2022-12-05T09:43:45.949Z,57.99274
2022-12-05T09:48:47.579Z,57.98135
2022-12-05T09:53:49.256Z,56.49593
2022-12-05T09:58:50.832Z,56.7913
2022-12-05T10:03:52.454Z,56.04335
2022-12-05T10:08:54.118Z,56.46366
2022-12-05T10:13:55.721Z,55.65548
2022-12-05T10:18:57.398Z,55.06348
2022-12-05T10:23:59.349Z,55.95199
2022-12-05T10:29:01.195Z,55.97058
2022-12-05T10:34:02.768Z,55.37235
2022-12-05T10:39:09.891Z,55.0057
2022-12-05T10:44:12.927Z,57.49735
2022-12-05T10:49:14.517Z,55.94231
2022-12-05T10:54:16.223Z,58.61493
2022-12-05T10:59:17.821Z,56.36094
2022-12-05T11:04:20.053Z,56.86167
2022-12-05T11:09:21.741Z,60.09699
2022-12-05T11:14:23.401Z,57.48782
2022-12-05T11:19:25.015Z,58.41519
2022-12-05T11:24:26.739Z,56.08604
2022-12-05T11:29:28.354Z,57.63789
2022-12-05T11:34:29.983Z,55.9049
2022-12-05T11:39:31.607Z,57.60323
2022-12-05T11:44:33.203Z,61.03756
2022-12-05T11:49:34.816Z,57.11651
2022-12-05T11:55:03.836Z,58.80891
2022-12-05T12:00:06.397Z,57.29882
2022-12-05T12:05:07.988Z,57.53563
2022-12-05T12:10:10.017Z,59.20714
2022-12-05T12:15:11.943Z,57.5961
2022-12-05T12:20:13.551Z,59.48706
2022-12-05T12:25:15.148Z,59.82933
2022-12-05T12:30:16.756Z,62.75848
2022-12-05T12:35:18.370Z,60.68034
2022-12-05T12:40:20.014Z,57.59391
2022-12-05T12:45:21.641Z,57.08553
2022-12-05T12:50:23.258Z,58.94292
2022-12-05T12:55:24.890Z,58.15785
2022-12-05T13:00:26.475Z,59.45087
2022-12-05T13:05:28.093Z,59.6359
2022-12-05T13:10:29.944Z,59.00146
2022-12-05T13:15:31.544Z,60.16569
2022-12-05T13:20:33.165Z,58.26413
2022-12-05T13:25:34.779Z,57.51751
2022-12-05T13:30:36.397Z,59.73319
2022-12-05T13:35:38.008Z,58.97503
2022-12-05T13:40:39.644Z,59.50037
2022-12-05T13:45:41.341Z,59.76348
2022-12-05T13:50:42.946Z,64.31789
2022-12-05T13:55:44.563Z,61.01871
2022-12-05T14:00:46.256Z,60.111
2022-12-05T14:05:47.946Z,58.76428
2022-12-05T14:10:49.537Z,58.64888
2022-12-05T14:15:51.156Z,59.27137
2022-12-05T14:20:52.792Z,56.59756
2022-12-05T14:25:58.905Z,59.22087
2022-12-05T14:31:02.070Z,60.11187
2022-12-05T14:36:03.754Z,56.17432
2022-12-05T14:41:06.856Z,56.90099
2022-12-05T14:46:08.581Z,59.85802
2022-12-05T14:51:10.333Z,60.36816
2022-12-05T14:56:11.960Z,59.15377
2022-12-05T15:01:13.597Z,59.34077
2022-12-05T15:06:15.236Z,59.39583
2022-12-05T15:11:16.888Z,58.71318
2022-12-05T15:16:18.598Z,57.25301
2022-12-05T15:21:20.270Z,56.72857
2022-12-05T15:26:45.508Z,57.9139
2022-12-05T15:31:48.246Z,57.60098
2022-12-05T15:36:49.824Z,56.25609
2022-12-05T15:41:51.450Z,56.2395
2022-12-05T15:46:53.088Z,58.87636
2022-12-05T15:51:54.676Z,59.51988
2022-12-05T15:56:56.334Z,62.91626
2022-12-05T16:01:58.075Z,58.55817
2022-12-05T16:06:59.803Z,59.05199
2022-12-05T16:12:01.446Z,59.48236
2022-12-05T16:17:03.063Z,58.91965
2022-12-05T16:22:04.681Z,58.35025
2022-12-05T16:27:06.369Z,56.92724
2022-12-05T16:32:08.035Z,57.16785
2022-12-05T16:37:09.749Z,56.56847
2022-12-05T16:42:11.406Z,58.62059
2022-12-05T16:47:13.029Z,58.97744
2022-12-05T16:52:14.768Z,56.93997
2022-12-05T16:57:16.387Z,57.22095
2022-12-05T17:02:18.177Z,58.15575
2022-12-05T17:07:19.932Z,58.38453
2022-12-05T17:12:21.542Z,61.20931
2022-12-05T17:17:23.123Z,60.40828
2022-12-05T17:22:24.766Z,61.22595
2022-12-05T17:27:26.367Z,61.3279
2022-12-05T17:32:28.003Z,63.33509
2022-12-05T17:37:29.944Z,60.15711
2022-12-05T17:42:31.565Z,62.49186
2022-12-05T17:47:33.501Z,61.34875
2022-12-05T17:52:35.105Z,60.96559
2022-12-05T17:57:36.884Z,58.38577
2022-12-05T18:02:38.627Z,58.03391
2022-12-05T18:07:40.456Z,55.66063
2022-12-05T18:12:42.156Z,56.49086
2022-12-05T18:17:43.957Z,55.64684
2022-12-05T18:22:45.539Z,55.23598
2022-12-05T18:27:47.198Z,53.52792
2022-12-05T18:32:48.966Z,53.73275
2022-12-05T18:37:50.593Z,54.00633
2022-12-05T18:42:52.238Z,53.23295
2022-12-05T18:48:00.606Z,50.03656
2022-12-05T18:53:11.924Z,52.76689
2022-12-05T18:58:13.524Z,52.90003
2022-12-05T19:03:15.173Z,51.67744
2022-12-05T19:08:16.855Z,55.44832
2022-12-05T19:13:18.540Z,53.44857
2022-12-05T19:18:20.140Z,53.38455
2022-12-05T19:23:21.798Z,51.24228
2022-12-05T19:28:23.419Z,55.95142
2022-12-05T19:33:25.035Z,55.95676
2022-12-05T19:38:26.636Z,57.35167
2022-12-05T19:43:28.271Z,56.68816
2022-12-05T19:48:29.900Z,52.26231
2022-12-05T19:53:31.648Z,53.29207
2022-12-05T19:58:33.280Z,52.17019
2022-12-05T20:03:34.900Z,52.48628
2022-12-05T20:08:36.651Z,53.96548
2022-12-05T20:13:46.354Z,51.8994
2022-12-05T20:18:48.890Z,51.39012
2022-12-05T20:23:50.511Z,50.12848
2022-12-05T20:28:52.206Z,50.8705
2022-12-05T20:33:53.821Z,52.17602
2022-12-05T20:38:55.430Z,53.11718
2022-12-05T20:43:57.022Z,53.47792
2022-12-05T20:48:58.858Z,51.31191
2022-12-05T20:54:00.515Z,51.2725
2022-12-05T20:59:02.431Z,50.94433
2022-12-05T21:04:04.052Z,51.90906
2022-12-05T21:09:05.719Z,53.14734
2022-12-05T21:14:07.308Z,53.18037
2022-12-05T21:19:08.952Z,52.65849
2022-12-05T21:24:10.681Z,52.85644
2022-12-05T21:29:12.315Z,50.71292
2022-12-05T21:34:13.919Z,52.52231
2022-12-05T21:39:15.505Z,53.42747
2022-12-05T21:44:17.148Z,54.82984
2022-12-05T21:49:18.772Z,53.48543
2022-12-05T21:54:20.407Z,53.10269
2022-12-05T21:59:22.059Z,52.94765
2022-12-05T22:04:23.673Z,53.02667
2022-12-05T22:09:25.287Z,51.04973
2022-12-05T22:14:27.326Z,54.16649
2022-12-05T22:19:28.975Z,54.92267
2022-12-05T22:24:30.658Z,53.05062
2022-12-05T22:29:32.244Z,55.82159
2022-12-05T22:34:33.899Z,53.04289
2022-12-05T22:39:35.529Z,56.32965
2022-12-05T22:44:37.148Z,53.72336
2022-12-05T22:49:38.757Z,55.72431
2022-12-05T22:54:40.349Z,55.03818
2022-12-05T22:59:41.961Z,55.79768
2022-12-05T23:04:43.613Z,57.03361
2022-12-05T23:09:45.255Z,58.03814
2022-12-05T23:14:46.935Z,56.90432
2022-12-05T23:19:48.503Z,59.77327
2022-12-05T23:24:50.165Z,60.36013
2022-12-05T23:29:51.789Z,58.07009
2022-12-05T23:34:53.649Z,57.55385
2022-12-05T23:39:55.740Z,58.79739
2022-12-05T23:44:57.539Z,59.21284
2022-12-05T23:49:59.494Z,58.00653
2022-12-05T23:55:01.391Z,57.87325
